<?xml version="1.0" encoding="UTF-8" standalone="no" ?>
<gpx xmlns="http://www.topografix.com/GPX/1/1" xmlns:xsi="http://www.w3.org/2001/XMLSchema-instance" xsi:schemaLocation="http://www.topografix.com/GPX/1/1 http://www.topografix.com/GPX/1/1/gpx.xsd" version="1.1" creator="VisuGPX - https://www.visugpx.com">
  <metadata>
    <name>Tour des Batailles et Ombres</name>
    <desc><![CDATA[Marche  avec passage au château de Montesson]]></desc>
  </metadata>
  <trk>
    <name><![CDATA[Tour des Batailles et ombres]]></name>
    <trkseg>
      <trkpt lat="48.25231" lon="-0.35958">
        <ele>201</ele>
        <time>2013-01-28T08:18:34Z</time>
      </trkpt>
      <trkpt lat="48.25231" lon="-0.35958">
        <ele>240</ele>
        <time>2013-01-28T08:18:37Z</time>
      </trkpt>
      <trkpt lat="48.25231" lon="-0.35958">
        <ele>201</ele>
        <time>2013-01-28T08:18:39Z</time>
      </trkpt>
      <trkpt lat="48.25231" lon="-0.35958">
        <ele>201</ele>
        <time>2013-01-28T08:21:47Z</time>
      </trkpt>
      <trkpt lat="48.25244" lon="-0.35955">
        <ele>252</ele>
        <time>2013-01-28T08:21:50Z</time>
      </trkpt>
      <trkpt lat="48.25226" lon="-0.35972">
        <ele>246</ele>
        <time>2013-01-28T08:21:57Z</time>
      </trkpt>
      <trkpt lat="48.25222" lon="-0.35989">
        <ele>241</ele>
        <time>2013-01-28T08:22:05Z</time>
      </trkpt>
      <trkpt lat="48.25215" lon="-0.36008">
        <ele>241</ele>
        <time>2013-01-28T08:22:17Z</time>
      </trkpt>
      <trkpt lat="48.25207" lon="-0.36018">
        <ele>237</ele>
        <time>2013-01-28T08:22:28Z</time>
      </trkpt>
      <trkpt lat="48.25194" lon="-0.36034">
        <ele>239</ele>
        <time>2013-01-28T08:22:40Z</time>
      </trkpt>
      <trkpt lat="48.2518" lon="-0.36018">
        <ele>243</ele>
        <time>2013-01-28T08:22:53Z</time>
      </trkpt>
      <trkpt lat="48.25166" lon="-0.35999">
        <ele>241</ele>
        <time>2013-01-28T08:23:09Z</time>
      </trkpt>
      <trkpt lat="48.25152" lon="-0.35985">
        <ele>245</ele>
        <time>2013-01-28T08:23:26Z</time>
      </trkpt>
      <trkpt lat="48.25135" lon="-0.35964">
        <ele>248</ele>
        <time>2013-01-28T08:23:45Z</time>
      </trkpt>
      <trkpt lat="48.2512" lon="-0.35948">
        <ele>251</ele>
        <time>2013-01-28T08:24:00Z</time>
      </trkpt>
      <trkpt lat="48.25108" lon="-0.35938">
        <ele>248</ele>
        <time>2013-01-28T08:24:11Z</time>
      </trkpt>
      <trkpt lat="48.25102" lon="-0.35921">
        <ele>248</ele>
        <time>2013-01-28T08:24:23Z</time>
      </trkpt>
      <trkpt lat="48.25097" lon="-0.35912">
        <ele>250</ele>
        <time>2013-01-28T08:24:30Z</time>
      </trkpt>
      <trkpt lat="48.25083" lon="-0.35892">
        <ele>251</ele>
        <time>2013-01-28T08:24:45Z</time>
      </trkpt>
      <trkpt lat="48.25068" lon="-0.35873">
        <ele>253</ele>
        <time>2013-01-28T08:25:01Z</time>
      </trkpt>
      <trkpt lat="48.25049" lon="-0.35858">
        <ele>258</ele>
        <time>2013-01-28T08:25:20Z</time>
      </trkpt>
      <trkpt lat="48.25031" lon="-0.3584">
        <ele>254</ele>
        <time>2013-01-28T08:25:37Z</time>
      </trkpt>
      <trkpt lat="48.25014" lon="-0.35829">
        <ele>248</ele>
        <time>2013-01-28T08:25:51Z</time>
      </trkpt>
      <trkpt lat="48.24994" lon="-0.35838">
        <ele>251</ele>
        <time>2013-01-28T08:26:09Z</time>
      </trkpt>
      <trkpt lat="48.2498" lon="-0.35846">
        <ele>248</ele>
        <time>2013-01-28T08:26:21Z</time>
      </trkpt>
      <trkpt lat="48.24965" lon="-0.35847">
        <ele>239</ele>
        <time>2013-01-28T08:26:34Z</time>
      </trkpt>
      <trkpt lat="48.24956" lon="-0.35816">
        <ele>245</ele>
        <time>2013-01-28T08:26:53Z</time>
      </trkpt>
      <trkpt lat="48.24952" lon="-0.3579">
        <ele>248</ele>
        <time>2013-01-28T08:27:07Z</time>
      </trkpt>
      <trkpt lat="48.24943" lon="-0.35763">
        <ele>246</ele>
        <time>2013-01-28T08:27:24Z</time>
      </trkpt>
      <trkpt lat="48.24941" lon="-0.35737">
        <ele>252</ele>
        <time>2013-01-28T08:27:39Z</time>
      </trkpt>
      <trkpt lat="48.2494" lon="-0.35703">
        <ele>255</ele>
        <time>2013-01-28T08:27:57Z</time>
      </trkpt>
      <trkpt lat="48.24942" lon="-0.35672">
        <ele>247</ele>
        <time>2013-01-28T08:28:13Z</time>
      </trkpt>
      <trkpt lat="48.24945" lon="-0.35651">
        <ele>253</ele>
        <time>2013-01-28T08:28:24Z</time>
      </trkpt>
      <trkpt lat="48.24948" lon="-0.35629">
        <ele>258</ele>
        <time>2013-01-28T08:28:37Z</time>
      </trkpt>
      <trkpt lat="48.24954" lon="-0.35601">
        <ele>252</ele>
        <time>2013-01-28T08:28:51Z</time>
      </trkpt>
      <trkpt lat="48.24958" lon="-0.35582">
        <ele>253</ele>
        <time>2013-01-28T08:29:05Z</time>
      </trkpt>
      <trkpt lat="48.24965" lon="-0.35551">
        <ele>251</ele>
        <time>2013-01-28T08:29:24Z</time>
      </trkpt>
      <trkpt lat="48.24973" lon="-0.3553">
        <ele>256</ele>
        <time>2013-01-28T08:29:37Z</time>
      </trkpt>
      <trkpt lat="48.24983" lon="-0.35512">
        <ele>252</ele>
        <time>2013-01-28T08:29:51Z</time>
      </trkpt>
      <trkpt lat="48.24995" lon="-0.35488">
        <ele>251</ele>
        <time>2013-01-28T08:30:07Z</time>
      </trkpt>
      <trkpt lat="48.25008" lon="-0.35476">
        <ele>255</ele>
        <time>2013-01-28T08:30:17Z</time>
      </trkpt>
      <trkpt lat="48.25024" lon="-0.35458">
        <ele>256</ele>
        <time>2013-01-28T08:30:32Z</time>
      </trkpt>
      <trkpt lat="48.25034" lon="-0.35447">
        <ele>256</ele>
        <time>2013-01-28T08:30:41Z</time>
      </trkpt>
      <trkpt lat="48.25041" lon="-0.3544">
        <ele>261</ele>
        <time>2013-01-28T08:30:48Z</time>
      </trkpt>
      <trkpt lat="48.25051" lon="-0.35431">
        <ele>262</ele>
        <time>2013-01-28T08:30:58Z</time>
      </trkpt>
      <trkpt lat="48.25064" lon="-0.35418">
        <ele>262</ele>
        <time>2013-01-28T08:31:11Z</time>
      </trkpt>
      <trkpt lat="48.25082" lon="-0.35396">
        <ele>260</ele>
        <time>2013-01-28T08:31:28Z</time>
      </trkpt>
      <trkpt lat="48.25093" lon="-0.35382">
        <ele>266</ele>
        <time>2013-01-28T08:31:39Z</time>
      </trkpt>
      <trkpt lat="48.25104" lon="-0.35369">
        <ele>267</ele>
        <time>2013-01-28T08:31:50Z</time>
      </trkpt>
      <trkpt lat="48.25122" lon="-0.35342">
        <ele>270</ele>
        <time>2013-01-28T08:32:08Z</time>
      </trkpt>
      <trkpt lat="48.25128" lon="-0.35328">
        <ele>270</ele>
        <time>2013-01-28T08:32:19Z</time>
      </trkpt>
      <trkpt lat="48.25141" lon="-0.35303">
        <ele>265</ele>
        <time>2013-01-28T08:32:35Z</time>
      </trkpt>
      <trkpt lat="48.25148" lon="-0.35281">
        <ele>270</ele>
        <time>2013-01-28T08:32:48Z</time>
      </trkpt>
      <trkpt lat="48.25158" lon="-0.35258">
        <ele>270</ele>
        <time>2013-01-28T08:33:05Z</time>
      </trkpt>
      <trkpt lat="48.25173" lon="-0.35227">
        <ele>269</ele>
        <time>2013-01-28T08:33:25Z</time>
      </trkpt>
      <trkpt lat="48.25181" lon="-0.35213">
        <ele>268</ele>
        <time>2013-01-28T08:33:36Z</time>
      </trkpt>
      <trkpt lat="48.25195" lon="-0.35188">
        <ele>278</ele>
        <time>2013-01-28T08:33:53Z</time>
      </trkpt>
      <trkpt lat="48.25205" lon="-0.35167">
        <ele>281</ele>
        <time>2013-01-28T08:34:05Z</time>
      </trkpt>
      <trkpt lat="48.25214" lon="-0.35153">
        <ele>276</ele>
        <time>2013-01-28T08:34:16Z</time>
      </trkpt>
      <trkpt lat="48.25224" lon="-0.35142">
        <ele>274</ele>
        <time>2013-01-28T08:34:25Z</time>
      </trkpt>
      <trkpt lat="48.25239" lon="-0.35123">
        <ele>280</ele>
        <time>2013-01-28T08:34:41Z</time>
      </trkpt>
      <trkpt lat="48.25256" lon="-0.35103">
        <ele>281</ele>
        <time>2013-01-28T08:34:59Z</time>
      </trkpt>
      <trkpt lat="48.25269" lon="-0.35091">
        <ele>278</ele>
        <time>2013-01-28T08:35:13Z</time>
      </trkpt>
      <trkpt lat="48.25286" lon="-0.3507">
        <ele>279</ele>
        <time>2013-01-28T08:35:32Z</time>
      </trkpt>
      <trkpt lat="48.25303" lon="-0.35058">
        <ele>276</ele>
        <time>2013-01-28T08:35:48Z</time>
      </trkpt>
      <trkpt lat="48.25316" lon="-0.35048">
        <ele>276</ele>
        <time>2013-01-28T08:36:00Z</time>
      </trkpt>
      <trkpt lat="48.25329" lon="-0.35035">
        <ele>273</ele>
        <time>2013-01-28T08:36:17Z</time>
      </trkpt>
      <trkpt lat="48.2534" lon="-0.35024">
        <ele>263</ele>
        <time>2013-01-28T08:36:36Z</time>
      </trkpt>
      <trkpt lat="48.2536" lon="-0.35011">
        <ele>272</ele>
        <time>2013-01-28T08:36:51Z</time>
      </trkpt>
      <trkpt lat="48.25377" lon="-0.35003">
        <ele>297</ele>
        <time>2013-01-28T08:37:04Z</time>
      </trkpt>
      <trkpt lat="48.254" lon="-0.34996">
        <ele>281</ele>
        <time>2013-01-28T08:37:21Z</time>
      </trkpt>
      <trkpt lat="48.25422" lon="-0.34978">
        <ele>283</ele>
        <time>2013-01-28T08:37:40Z</time>
      </trkpt>
      <trkpt lat="48.25435" lon="-0.34964">
        <ele>288</ele>
        <time>2013-01-28T08:37:51Z</time>
      </trkpt>
      <trkpt lat="48.25445" lon="-0.34954">
        <ele>289</ele>
        <time>2013-01-28T08:38:00Z</time>
      </trkpt>
      <trkpt lat="48.25461" lon="-0.34937">
        <ele>292</ele>
        <time>2013-01-28T08:38:16Z</time>
      </trkpt>
      <trkpt lat="48.25474" lon="-0.34921">
        <ele>297</ele>
        <time>2013-01-28T08:38:30Z</time>
      </trkpt>
      <trkpt lat="48.25493" lon="-0.34899">
        <ele>300</ele>
        <time>2013-01-28T08:38:48Z</time>
      </trkpt>
      <trkpt lat="48.25505" lon="-0.34888">
        <ele>299</ele>
        <time>2013-01-28T08:39:00Z</time>
      </trkpt>
      <trkpt lat="48.25522" lon="-0.34871">
        <ele>300</ele>
        <time>2013-01-28T08:39:16Z</time>
      </trkpt>
      <trkpt lat="48.25536" lon="-0.34855">
        <ele>297</ele>
        <time>2013-01-28T08:39:30Z</time>
      </trkpt>
      <trkpt lat="48.25545" lon="-0.34846">
        <ele>295</ele>
        <time>2013-01-28T08:39:38Z</time>
      </trkpt>
      <trkpt lat="48.25561" lon="-0.34829">
        <ele>296</ele>
        <time>2013-01-28T08:39:54Z</time>
      </trkpt>
      <trkpt lat="48.25578" lon="-0.34809">
        <ele>296</ele>
        <time>2013-01-28T08:40:11Z</time>
      </trkpt>
      <trkpt lat="48.25592" lon="-0.34792">
        <ele>299</ele>
        <time>2013-01-28T08:40:27Z</time>
      </trkpt>
      <trkpt lat="48.25605" lon="-0.34773">
        <ele>297</ele>
        <time>2013-01-28T08:40:41Z</time>
      </trkpt>
      <trkpt lat="48.25615" lon="-0.34748">
        <ele>299</ele>
        <time>2013-01-28T08:40:56Z</time>
      </trkpt>
      <trkpt lat="48.25621" lon="-0.34732">
        <ele>301</ele>
        <time>2013-01-28T08:41:06Z</time>
      </trkpt>
      <trkpt lat="48.25628" lon="-0.34704">
        <ele>305</ele>
        <time>2013-01-28T08:41:21Z</time>
      </trkpt>
      <trkpt lat="48.25633" lon="-0.34689">
        <ele>305</ele>
        <time>2013-01-28T08:41:31Z</time>
      </trkpt>
      <trkpt lat="48.25638" lon="-0.34663">
        <ele>303</ele>
        <time>2013-01-28T08:41:45Z</time>
      </trkpt>
      <trkpt lat="48.25647" lon="-0.34632">
        <ele>305</ele>
        <time>2013-01-28T08:42:01Z</time>
      </trkpt>
      <trkpt lat="48.25652" lon="-0.34601">
        <ele>310</ele>
        <time>2013-01-28T08:42:17Z</time>
      </trkpt>
      <trkpt lat="48.2566" lon="-0.34577">
        <ele>306</ele>
        <time>2013-01-28T08:42:32Z</time>
      </trkpt>
      <trkpt lat="48.25668" lon="-0.34553">
        <ele>308</ele>
        <time>2013-01-28T08:42:46Z</time>
      </trkpt>
      <trkpt lat="48.25671" lon="-0.34536">
        <ele>313</ele>
        <time>2013-01-28T08:42:56Z</time>
      </trkpt>
      <trkpt lat="48.25679" lon="-0.34509">
        <ele>311</ele>
        <time>2013-01-28T08:43:12Z</time>
      </trkpt>
      <trkpt lat="48.25697" lon="-0.34508">
        <ele>310</ele>
        <time>2013-01-28T08:43:28Z</time>
      </trkpt>
      <trkpt lat="48.25714" lon="-0.34519">
        <ele>318</ele>
        <time>2013-01-28T08:43:44Z</time>
      </trkpt>
      <trkpt lat="48.25736" lon="-0.34531">
        <ele>316</ele>
        <time>2013-01-28T08:44:01Z</time>
      </trkpt>
      <trkpt lat="48.25748" lon="-0.34538">
        <ele>314</ele>
        <time>2013-01-28T08:44:11Z</time>
      </trkpt>
      <trkpt lat="48.25757" lon="-0.34544">
        <ele>321</ele>
        <time>2013-01-28T08:44:19Z</time>
      </trkpt>
      <trkpt lat="48.25775" lon="-0.34555">
        <ele>319</ele>
        <time>2013-01-28T08:44:36Z</time>
      </trkpt>
      <trkpt lat="48.25775" lon="-0.34555">
        <ele>319</ele>
        <time>2013-01-28T08:44:43Z</time>
      </trkpt>
      <trkpt lat="48.25775" lon="-0.34555">
        <ele>274.8</ele>
        <time>2013-01-28T08:44:57Z</time>
      </trkpt>
      <trkpt lat="48.25802" lon="-0.34572">
        <ele>326</ele>
        <time>2013-01-28T08:45:10Z</time>
      </trkpt>
      <trkpt lat="48.25814" lon="-0.34581">
        <ele>320</ele>
        <time>2013-01-28T08:45:25Z</time>
      </trkpt>
      <trkpt lat="48.25823" lon="-0.34587">
        <ele>323</ele>
        <time>2013-01-28T08:45:34Z</time>
      </trkpt>
      <trkpt lat="48.25823" lon="-0.34587">
        <ele>277</ele>
        <time>2013-01-28T08:45:41Z</time>
      </trkpt>
      <trkpt lat="48.25823" lon="-0.34587">
        <ele>277</ele>
        <time>2013-01-28T08:47:00Z</time>
      </trkpt>
      <trkpt lat="48.25856" lon="-0.34599">
        <ele>322</ele>
        <time>2013-01-28T08:47:17Z</time>
      </trkpt>
      <trkpt lat="48.25869" lon="-0.34602">
        <ele>325</ele>
        <time>2013-01-28T08:47:28Z</time>
      </trkpt>
      <trkpt lat="48.25889" lon="-0.34611">
        <ele>322</ele>
        <time>2013-01-28T08:47:45Z</time>
      </trkpt>
      <trkpt lat="48.25912" lon="-0.3462">
        <ele>332</ele>
        <time>2013-01-28T08:48:02Z</time>
      </trkpt>
      <trkpt lat="48.2593" lon="-0.34623">
        <ele>333</ele>
        <time>2013-01-28T08:48:18Z</time>
      </trkpt>
      <trkpt lat="48.25947" lon="-0.34602">
        <ele>337</ele>
        <time>2013-01-28T08:48:35Z</time>
      </trkpt>
      <trkpt lat="48.25961" lon="-0.34588">
        <ele>334</ele>
        <time>2013-01-28T08:48:49Z</time>
      </trkpt>
      <trkpt lat="48.25975" lon="-0.34569">
        <ele>331</ele>
        <time>2013-01-28T08:49:04Z</time>
      </trkpt>
      <trkpt lat="48.25987" lon="-0.34551">
        <ele>336</ele>
        <time>2013-01-28T08:49:17Z</time>
      </trkpt>
      <trkpt lat="48.25999" lon="-0.34533">
        <ele>342</ele>
        <time>2013-01-28T08:49:30Z</time>
      </trkpt>
      <trkpt lat="48.26008" lon="-0.3452">
        <ele>343</ele>
        <time>2013-01-28T08:49:40Z</time>
      </trkpt>
      <trkpt lat="48.26025" lon="-0.34495">
        <ele>349</ele>
        <time>2013-01-28T08:49:58Z</time>
      </trkpt>
      <trkpt lat="48.26034" lon="-0.34478">
        <ele>342</ele>
        <time>2013-01-28T08:50:11Z</time>
      </trkpt>
      <trkpt lat="48.26048" lon="-0.34452">
        <ele>346</ele>
        <time>2013-01-28T08:50:30Z</time>
      </trkpt>
      <trkpt lat="48.26062" lon="-0.3443">
        <ele>349</ele>
        <time>2013-01-28T08:50:46Z</time>
      </trkpt>
      <trkpt lat="48.26067" lon="-0.34417">
        <ele>347</ele>
        <time>2013-01-28T08:50:55Z</time>
      </trkpt>
      <trkpt lat="48.26081" lon="-0.3439">
        <ele>346</ele>
        <time>2013-01-28T08:51:13Z</time>
      </trkpt>
      <trkpt lat="48.26089" lon="-0.34377">
        <ele>349</ele>
        <time>2013-01-28T08:51:21Z</time>
      </trkpt>
      <trkpt lat="48.26094" lon="-0.34366">
        <ele>348</ele>
        <time>2013-01-28T08:51:29Z</time>
      </trkpt>
      <trkpt lat="48.26107" lon="-0.34343">
        <ele>355</ele>
        <time>2013-01-28T08:51:45Z</time>
      </trkpt>
      <trkpt lat="48.26114" lon="-0.34329">
        <ele>352</ele>
        <time>2013-01-28T08:51:54Z</time>
      </trkpt>
      <trkpt lat="48.26122" lon="-0.34308">
        <ele>346</ele>
        <time>2013-01-28T08:52:08Z</time>
      </trkpt>
      <trkpt lat="48.26132" lon="-0.34286">
        <ele>352</ele>
        <time>2013-01-28T08:52:21Z</time>
      </trkpt>
      <trkpt lat="48.26143" lon="-0.34266">
        <ele>354</ele>
        <time>2013-01-28T08:52:35Z</time>
      </trkpt>
      <trkpt lat="48.26153" lon="-0.34249">
        <ele>357</ele>
        <time>2013-01-28T08:52:47Z</time>
      </trkpt>
      <trkpt lat="48.26162" lon="-0.34232">
        <ele>357</ele>
        <time>2013-01-28T08:52:57Z</time>
      </trkpt>
      <trkpt lat="48.26175" lon="-0.34206">
        <ele>355</ele>
        <time>2013-01-28T08:53:14Z</time>
      </trkpt>
      <trkpt lat="48.26186" lon="-0.34185">
        <ele>356</ele>
        <time>2013-01-28T08:53:29Z</time>
      </trkpt>
      <trkpt lat="48.26199" lon="-0.34161">
        <ele>356</ele>
        <time>2013-01-28T08:53:45Z</time>
      </trkpt>
      <trkpt lat="48.26206" lon="-0.34145">
        <ele>354</ele>
        <time>2013-01-28T08:53:55Z</time>
      </trkpt>
      <trkpt lat="48.26218" lon="-0.34119">
        <ele>359</ele>
        <time>2013-01-28T08:54:11Z</time>
      </trkpt>
      <trkpt lat="48.26227" lon="-0.34098">
        <ele>356</ele>
        <time>2013-01-28T08:54:24Z</time>
      </trkpt>
      <trkpt lat="48.26231" lon="-0.34088">
        <ele>357</ele>
        <time>2013-01-28T08:54:31Z</time>
      </trkpt>
      <trkpt lat="48.26242" lon="-0.34056">
        <ele>353</ele>
        <time>2013-01-28T08:54:50Z</time>
      </trkpt>
      <trkpt lat="48.26257" lon="-0.34027">
        <ele>353</ele>
        <time>2013-01-28T08:55:09Z</time>
      </trkpt>
      <trkpt lat="48.26271" lon="-0.34008">
        <ele>350</ele>
        <time>2013-01-28T08:55:24Z</time>
      </trkpt>
      <trkpt lat="48.26285" lon="-0.33993">
        <ele>353</ele>
        <time>2013-01-28T08:55:36Z</time>
      </trkpt>
      <trkpt lat="48.26298" lon="-0.33977">
        <ele>348</ele>
        <time>2013-01-28T08:55:50Z</time>
      </trkpt>
      <trkpt lat="48.26313" lon="-0.33964">
        <ele>349</ele>
        <time>2013-01-28T08:56:04Z</time>
      </trkpt>
      <trkpt lat="48.26328" lon="-0.3395">
        <ele>345</ele>
        <time>2013-01-28T08:56:18Z</time>
      </trkpt>
      <trkpt lat="48.26348" lon="-0.33938">
        <ele>352</ele>
        <time>2013-01-28T08:56:35Z</time>
      </trkpt>
      <trkpt lat="48.26363" lon="-0.33925">
        <ele>350</ele>
        <time>2013-01-28T08:56:48Z</time>
      </trkpt>
      <trkpt lat="48.2638" lon="-0.33915">
        <ele>348</ele>
        <time>2013-01-28T08:57:02Z</time>
      </trkpt>
      <trkpt lat="48.264" lon="-0.33902">
        <ele>349</ele>
        <time>2013-01-28T08:57:18Z</time>
      </trkpt>
      <trkpt lat="48.26416" lon="-0.3389">
        <ele>348</ele>
        <time>2013-01-28T08:57:31Z</time>
      </trkpt>
      <trkpt lat="48.26431" lon="-0.33878">
        <ele>351</ele>
        <time>2013-01-28T08:57:42Z</time>
      </trkpt>
      <trkpt lat="48.26448" lon="-0.33862">
        <ele>347</ele>
        <time>2013-01-28T08:57:58Z</time>
      </trkpt>
      <trkpt lat="48.26454" lon="-0.33851">
        <ele>339</ele>
        <time>2013-01-28T08:58:06Z</time>
      </trkpt>
      <trkpt lat="48.26454" lon="-0.33851">
        <ele>296.5</ele>
        <time>2013-01-28T08:58:15Z</time>
      </trkpt>
      <trkpt lat="48.26454" lon="-0.33851">
        <ele>296.5</ele>
        <time>2013-01-28T09:00:07Z</time>
      </trkpt>
      <trkpt lat="48.26486" lon="-0.33878">
        <ele>340</ele>
        <time>2013-01-28T09:00:20Z</time>
      </trkpt>
      <trkpt lat="48.26497" lon="-0.3389">
        <ele>341</ele>
        <time>2013-01-28T09:00:30Z</time>
      </trkpt>
      <trkpt lat="48.26509" lon="-0.33902">
        <ele>345</ele>
        <time>2013-01-28T09:00:40Z</time>
      </trkpt>
      <trkpt lat="48.26523" lon="-0.33913">
        <ele>345</ele>
        <time>2013-01-28T09:00:52Z</time>
      </trkpt>
      <trkpt lat="48.26539" lon="-0.33924">
        <ele>344</ele>
        <time>2013-01-28T09:01:06Z</time>
      </trkpt>
      <trkpt lat="48.26554" lon="-0.33942">
        <ele>343</ele>
        <time>2013-01-28T09:01:21Z</time>
      </trkpt>
      <trkpt lat="48.26554" lon="-0.33967">
        <ele>345</ele>
        <time>2013-01-28T09:01:34Z</time>
      </trkpt>
      <trkpt lat="48.2655" lon="-0.33988">
        <ele>341</ele>
        <time>2013-01-28T09:01:45Z</time>
      </trkpt>
      <trkpt lat="48.26543" lon="-0.3402">
        <ele>343</ele>
        <time>2013-01-28T09:02:01Z</time>
      </trkpt>
      <trkpt lat="48.26539" lon="-0.34047">
        <ele>347</ele>
        <time>2013-01-28T09:02:16Z</time>
      </trkpt>
      <trkpt lat="48.26534" lon="-0.34073">
        <ele>347</ele>
        <time>2013-01-28T09:02:29Z</time>
      </trkpt>
      <trkpt lat="48.26532" lon="-0.34087">
        <ele>342</ele>
        <time>2013-01-28T09:02:37Z</time>
      </trkpt>
      <trkpt lat="48.2653" lon="-0.34111">
        <ele>347</ele>
        <time>2013-01-28T09:02:51Z</time>
      </trkpt>
      <trkpt lat="48.26524" lon="-0.34148">
        <ele>346</ele>
        <time>2013-01-28T09:03:10Z</time>
      </trkpt>
      <trkpt lat="48.26522" lon="-0.34168">
        <ele>348</ele>
        <time>2013-01-28T09:03:20Z</time>
      </trkpt>
      <trkpt lat="48.26521" lon="-0.34183">
        <ele>347</ele>
        <time>2013-01-28T09:03:28Z</time>
      </trkpt>
      <trkpt lat="48.26519" lon="-0.34211">
        <ele>346</ele>
        <time>2013-01-28T09:03:42Z</time>
      </trkpt>
      <trkpt lat="48.26519" lon="-0.34224">
        <ele>351</ele>
        <time>2013-01-28T09:03:50Z</time>
      </trkpt>
      <trkpt lat="48.26516" lon="-0.34262">
        <ele>351</ele>
        <time>2013-01-28T09:04:09Z</time>
      </trkpt>
      <trkpt lat="48.26518" lon="-0.34291">
        <ele>349</ele>
        <time>2013-01-28T09:04:26Z</time>
      </trkpt>
      <trkpt lat="48.26521" lon="-0.34332">
        <ele>348</ele>
        <time>2013-01-28T09:04:47Z</time>
      </trkpt>
      <trkpt lat="48.26521" lon="-0.34332">
        <ele>348</ele>
        <time>2013-01-28T09:04:55Z</time>
      </trkpt>
      <trkpt lat="48.26521" lon="-0.34332">
        <ele>302.8</ele>
        <time>2013-01-28T09:05:15Z</time>
      </trkpt>
      <trkpt lat="48.26522" lon="-0.34358">
        <ele>346</ele>
        <time>2013-01-28T09:05:23Z</time>
      </trkpt>
      <trkpt lat="48.26522" lon="-0.34358">
        <ele>303.6</ele>
        <time>2013-01-28T09:05:37Z</time>
      </trkpt>
      <trkpt lat="48.2653" lon="-0.34412">
        <ele>348</ele>
        <time>2013-01-28T09:05:52Z</time>
      </trkpt>
      <trkpt lat="48.26534" lon="-0.34444">
        <ele>349</ele>
        <time>2013-01-28T09:06:09Z</time>
      </trkpt>
      <trkpt lat="48.26538" lon="-0.34466">
        <ele>352</ele>
        <time>2013-01-28T09:06:21Z</time>
      </trkpt>
      <trkpt lat="48.26539" lon="-0.34485">
        <ele>348</ele>
        <time>2013-01-28T09:06:31Z</time>
      </trkpt>
      <trkpt lat="48.26544" lon="-0.34506">
        <ele>350</ele>
        <time>2013-01-28T09:06:42Z</time>
      </trkpt>
      <trkpt lat="48.26546" lon="-0.34521">
        <ele>344</ele>
        <time>2013-01-28T09:06:50Z</time>
      </trkpt>
      <trkpt lat="48.26553" lon="-0.34558">
        <ele>349</ele>
        <time>2013-01-28T09:07:09Z</time>
      </trkpt>
      <trkpt lat="48.26557" lon="-0.34588">
        <ele>343</ele>
        <time>2013-01-28T09:07:25Z</time>
      </trkpt>
      <trkpt lat="48.26562" lon="-0.34613">
        <ele>340</ele>
        <time>2013-01-28T09:07:39Z</time>
      </trkpt>
      <trkpt lat="48.26566" lon="-0.34638">
        <ele>336</ele>
        <time>2013-01-28T09:07:52Z</time>
      </trkpt>
      <trkpt lat="48.26574" lon="-0.34673">
        <ele>340</ele>
        <time>2013-01-28T09:08:08Z</time>
      </trkpt>
      <trkpt lat="48.2658" lon="-0.34693">
        <ele>343</ele>
        <time>2013-01-28T09:08:19Z</time>
      </trkpt>
      <trkpt lat="48.26586" lon="-0.34714">
        <ele>337</ele>
        <time>2013-01-28T09:08:31Z</time>
      </trkpt>
      <trkpt lat="48.26594" lon="-0.34742">
        <ele>337</ele>
        <time>2013-01-28T09:08:47Z</time>
      </trkpt>
      <trkpt lat="48.266" lon="-0.34771">
        <ele>331</ele>
        <time>2013-01-28T09:09:01Z</time>
      </trkpt>
      <trkpt lat="48.26605" lon="-0.34789">
        <ele>336</ele>
        <time>2013-01-28T09:09:10Z</time>
      </trkpt>
      <trkpt lat="48.2661" lon="-0.34809">
        <ele>336</ele>
        <time>2013-01-28T09:09:21Z</time>
      </trkpt>
      <trkpt lat="48.26615" lon="-0.34833">
        <ele>334</ele>
        <time>2013-01-28T09:09:33Z</time>
      </trkpt>
      <trkpt lat="48.26621" lon="-0.34862">
        <ele>334</ele>
        <time>2013-01-28T09:09:48Z</time>
      </trkpt>
      <trkpt lat="48.26626" lon="-0.34881">
        <ele>332</ele>
        <time>2013-01-28T09:09:58Z</time>
      </trkpt>
      <trkpt lat="48.2663" lon="-0.34905">
        <ele>325</ele>
        <time>2013-01-28T09:10:11Z</time>
      </trkpt>
      <trkpt lat="48.26634" lon="-0.34932">
        <ele>327</ele>
        <time>2013-01-28T09:10:26Z</time>
      </trkpt>
      <trkpt lat="48.26634" lon="-0.34949">
        <ele>327</ele>
        <time>2013-01-28T09:10:34Z</time>
      </trkpt>
      <trkpt lat="48.26633" lon="-0.34973">
        <ele>321</ele>
        <time>2013-01-28T09:10:47Z</time>
      </trkpt>
      <trkpt lat="48.26627" lon="-0.34998">
        <ele>323</ele>
        <time>2013-01-28T09:11:00Z</time>
      </trkpt>
      <trkpt lat="48.26619" lon="-0.35025">
        <ele>323</ele>
        <time>2013-01-28T09:11:14Z</time>
      </trkpt>
      <trkpt lat="48.2661" lon="-0.35055">
        <ele>326</ele>
        <time>2013-01-28T09:11:30Z</time>
      </trkpt>
      <trkpt lat="48.26604" lon="-0.35085">
        <ele>322</ele>
        <time>2013-01-28T09:11:47Z</time>
      </trkpt>
      <trkpt lat="48.266" lon="-0.35099">
        <ele>322</ele>
        <time>2013-01-28T09:11:55Z</time>
      </trkpt>
      <trkpt lat="48.266" lon="-0.35099">
        <ele>278</ele>
        <time>2013-01-28T09:12:03Z</time>
      </trkpt>
      <trkpt lat="48.266" lon="-0.35099">
        <ele>278</ele>
        <time>2013-01-28T09:12:42Z</time>
      </trkpt>
      <trkpt lat="48.26587" lon="-0.35149">
        <ele>321</ele>
        <time>2013-01-28T09:12:57Z</time>
      </trkpt>
      <trkpt lat="48.26582" lon="-0.35172">
        <ele>321</ele>
        <time>2013-01-28T09:13:08Z</time>
      </trkpt>
      <trkpt lat="48.26582" lon="-0.35172">
        <ele>275.9</ele>
        <time>2013-01-28T09:13:17Z</time>
      </trkpt>
      <trkpt lat="48.26582" lon="-0.35172">
        <ele>275.9</ele>
        <time>2013-01-28T09:13:49Z</time>
      </trkpt>
      <trkpt lat="48.26571" lon="-0.35211">
        <ele>321</ele>
        <time>2013-01-28T09:13:59Z</time>
      </trkpt>
      <trkpt lat="48.26567" lon="-0.35235">
        <ele>317</ele>
        <time>2013-01-28T09:14:12Z</time>
      </trkpt>
      <trkpt lat="48.26559" lon="-0.35266">
        <ele>320</ele>
        <time>2013-01-28T09:14:28Z</time>
      </trkpt>
      <trkpt lat="48.26557" lon="-0.35288">
        <ele>316</ele>
        <time>2013-01-28T09:14:40Z</time>
      </trkpt>
      <trkpt lat="48.26557" lon="-0.35288">
        <ele>316</ele>
        <time>2013-01-28T09:14:49Z</time>
      </trkpt>
      <trkpt lat="48.26557" lon="-0.35288">
        <ele>274.5</ele>
        <time>2013-01-28T09:15:18Z</time>
      </trkpt>
      <trkpt lat="48.26544" lon="-0.35332">
        <ele>320</ele>
        <time>2013-01-28T09:15:30Z</time>
      </trkpt>
      <trkpt lat="48.26537" lon="-0.35354">
        <ele>315</ele>
        <time>2013-01-28T09:15:41Z</time>
      </trkpt>
      <trkpt lat="48.26534" lon="-0.35369">
        <ele>316</ele>
        <time>2013-01-28T09:15:50Z</time>
      </trkpt>
      <trkpt lat="48.2653" lon="-0.35382">
        <ele>316</ele>
        <time>2013-01-28T09:15:58Z</time>
      </trkpt>
      <trkpt lat="48.26525" lon="-0.35404">
        <ele>312</ele>
        <time>2013-01-28T09:16:09Z</time>
      </trkpt>
      <trkpt lat="48.2652" lon="-0.35427">
        <ele>319</ele>
        <time>2013-01-28T09:16:22Z</time>
      </trkpt>
      <trkpt lat="48.26515" lon="-0.35449">
        <ele>313</ele>
        <time>2013-01-28T09:16:33Z</time>
      </trkpt>
      <trkpt lat="48.26512" lon="-0.35461">
        <ele>316</ele>
        <time>2013-01-28T09:16:39Z</time>
      </trkpt>
      <trkpt lat="48.26505" lon="-0.35483">
        <ele>316</ele>
        <time>2013-01-28T09:16:50Z</time>
      </trkpt>
      <trkpt lat="48.26498" lon="-0.35512">
        <ele>315</ele>
        <time>2013-01-28T09:17:05Z</time>
      </trkpt>
      <trkpt lat="48.26492" lon="-0.35536">
        <ele>314</ele>
        <time>2013-01-28T09:17:18Z</time>
      </trkpt>
      <trkpt lat="48.26485" lon="-0.35566">
        <ele>319</ele>
        <time>2013-01-28T09:17:35Z</time>
      </trkpt>
      <trkpt lat="48.26484" lon="-0.35593">
        <ele>308</ele>
        <time>2013-01-28T09:17:50Z</time>
      </trkpt>
      <trkpt lat="48.26481" lon="-0.35618">
        <ele>309</ele>
        <time>2013-01-28T09:18:04Z</time>
      </trkpt>
      <trkpt lat="48.26478" lon="-0.35653">
        <ele>311</ele>
        <time>2013-01-28T09:18:19Z</time>
      </trkpt>
      <trkpt lat="48.2648" lon="-0.35677">
        <ele>308</ele>
        <time>2013-01-28T09:18:31Z</time>
      </trkpt>
      <trkpt lat="48.26485" lon="-0.35702">
        <ele>310</ele>
        <time>2013-01-28T09:18:45Z</time>
      </trkpt>
      <trkpt lat="48.26491" lon="-0.35724">
        <ele>309</ele>
        <time>2013-01-28T09:18:57Z</time>
      </trkpt>
      <trkpt lat="48.26498" lon="-0.35752">
        <ele>304</ele>
        <time>2013-01-28T09:19:12Z</time>
      </trkpt>
      <trkpt lat="48.26506" lon="-0.35777">
        <ele>301</ele>
        <time>2013-01-28T09:19:26Z</time>
      </trkpt>
      <trkpt lat="48.26521" lon="-0.35803">
        <ele>309</ele>
        <time>2013-01-28T09:19:42Z</time>
      </trkpt>
      <trkpt lat="48.26528" lon="-0.35823">
        <ele>306</ele>
        <time>2013-01-28T09:19:54Z</time>
      </trkpt>
      <trkpt lat="48.26534" lon="-0.35856">
        <ele>304</ele>
        <time>2013-01-28T09:20:10Z</time>
      </trkpt>
      <trkpt lat="48.26534" lon="-0.35879">
        <ele>303</ele>
        <time>2013-01-28T09:20:22Z</time>
      </trkpt>
      <trkpt lat="48.26533" lon="-0.35891">
        <ele>304</ele>
        <time>2013-01-28T09:20:28Z</time>
      </trkpt>
      <trkpt lat="48.26533" lon="-0.35891">
        <ele>255.7</ele>
        <time>2013-01-28T09:20:35Z</time>
      </trkpt>
      <trkpt lat="48.26533" lon="-0.35891">
        <ele>255.7</ele>
        <time>2013-01-28T09:20:39Z</time>
      </trkpt>
      <trkpt lat="48.26523" lon="-0.35921">
        <ele>300</ele>
        <time>2013-01-28T09:20:49Z</time>
      </trkpt>
      <trkpt lat="48.26514" lon="-0.35944">
        <ele>301</ele>
        <time>2013-01-28T09:21:03Z</time>
      </trkpt>
      <trkpt lat="48.26504" lon="-0.35966">
        <ele>302</ele>
        <time>2013-01-28T09:21:16Z</time>
      </trkpt>
      <trkpt lat="48.26493" lon="-0.35986">
        <ele>298</ele>
        <time>2013-01-28T09:21:30Z</time>
      </trkpt>
      <trkpt lat="48.26482" lon="-0.36009">
        <ele>303</ele>
        <time>2013-01-28T09:21:45Z</time>
      </trkpt>
      <trkpt lat="48.26467" lon="-0.36032">
        <ele>300</ele>
        <time>2013-01-28T09:22:01Z</time>
      </trkpt>
      <trkpt lat="48.26454" lon="-0.36052">
        <ele>301</ele>
        <time>2013-01-28T09:22:16Z</time>
      </trkpt>
      <trkpt lat="48.26439" lon="-0.36071">
        <ele>296</ele>
        <time>2013-01-28T09:22:30Z</time>
      </trkpt>
      <trkpt lat="48.26431" lon="-0.36083">
        <ele>297</ele>
        <time>2013-01-28T09:22:37Z</time>
      </trkpt>
      <trkpt lat="48.26421" lon="-0.36094">
        <ele>297</ele>
        <time>2013-01-28T09:22:47Z</time>
      </trkpt>
      <trkpt lat="48.26403" lon="-0.36116">
        <ele>296</ele>
        <time>2013-01-28T09:23:04Z</time>
      </trkpt>
      <trkpt lat="48.26389" lon="-0.36134">
        <ele>296</ele>
        <time>2013-01-28T09:23:16Z</time>
      </trkpt>
      <trkpt lat="48.26376" lon="-0.36148">
        <ele>294</ele>
        <time>2013-01-28T09:23:30Z</time>
      </trkpt>
      <trkpt lat="48.2636" lon="-0.36171">
        <ele>295</ele>
        <time>2013-01-28T09:23:46Z</time>
      </trkpt>
      <trkpt lat="48.26346" lon="-0.36196">
        <ele>293</ele>
        <time>2013-01-28T09:24:03Z</time>
      </trkpt>
      <trkpt lat="48.26331" lon="-0.36219">
        <ele>292</ele>
        <time>2013-01-28T09:24:19Z</time>
      </trkpt>
      <trkpt lat="48.26322" lon="-0.36241">
        <ele>296</ele>
        <time>2013-01-28T09:24:32Z</time>
      </trkpt>
      <trkpt lat="48.26318" lon="-0.36255">
        <ele>290</ele>
        <time>2013-01-28T09:24:38Z</time>
      </trkpt>
      <trkpt lat="48.26318" lon="-0.36255">
        <ele>244.5</ele>
        <time>2013-01-28T09:24:46Z</time>
      </trkpt>
      <trkpt lat="48.26318" lon="-0.36255">
        <ele>244.5</ele>
        <time>2013-01-28T09:25:09Z</time>
      </trkpt>
      <trkpt lat="48.26303" lon="-0.36309">
        <ele>289</ele>
        <time>2013-01-28T09:25:21Z</time>
      </trkpt>
      <trkpt lat="48.26298" lon="-0.36335">
        <ele>289</ele>
        <time>2013-01-28T09:25:34Z</time>
      </trkpt>
      <trkpt lat="48.26292" lon="-0.36363">
        <ele>290</ele>
        <time>2013-01-28T09:25:50Z</time>
      </trkpt>
      <trkpt lat="48.26288" lon="-0.36375">
        <ele>291</ele>
        <time>2013-01-28T09:25:58Z</time>
      </trkpt>
      <trkpt lat="48.26276" lon="-0.36413">
        <ele>285</ele>
        <time>2013-01-28T09:26:15Z</time>
      </trkpt>
      <trkpt lat="48.26272" lon="-0.36433">
        <ele>282</ele>
        <time>2013-01-28T09:26:26Z</time>
      </trkpt>
      <trkpt lat="48.26266" lon="-0.36457">
        <ele>285</ele>
        <time>2013-01-28T09:26:39Z</time>
      </trkpt>
      <trkpt lat="48.26262" lon="-0.36471">
        <ele>283</ele>
        <time>2013-01-28T09:26:47Z</time>
      </trkpt>
      <trkpt lat="48.26262" lon="-0.36471">
        <ele>237.9</ele>
        <time>2013-01-28T09:26:54Z</time>
      </trkpt>
      <trkpt lat="48.26262" lon="-0.36471">
        <ele>237.9</ele>
        <time>2013-01-28T09:27:39Z</time>
      </trkpt>
      <trkpt lat="48.26243" lon="-0.36533">
        <ele>280</ele>
        <time>2013-01-28T09:27:53Z</time>
      </trkpt>
      <trkpt lat="48.26263" lon="-0.36549">
        <ele>276</ele>
        <time>2013-01-28T09:28:08Z</time>
      </trkpt>
      <trkpt lat="48.26268" lon="-0.3655">
        <ele>279</ele>
        <time>2013-01-28T09:28:13Z</time>
      </trkpt>
      <trkpt lat="48.26268" lon="-0.3655">
        <ele>233.1</ele>
        <time>2013-01-28T09:28:20Z</time>
      </trkpt>
      <trkpt lat="48.26268" lon="-0.3655">
        <ele>233.1</ele>
        <time>2013-01-28T09:28:29Z</time>
      </trkpt>
      <trkpt lat="48.26241" lon="-0.36535">
        <ele>282</ele>
        <time>2013-01-28T09:28:36Z</time>
      </trkpt>
      <trkpt lat="48.26239" lon="-0.36533">
        <ele>274</ele>
        <time>2013-01-28T09:28:41Z</time>
      </trkpt>
      <trkpt lat="48.26239" lon="-0.36533">
        <ele>231.9</ele>
        <time>2013-01-28T09:28:46Z</time>
      </trkpt>
      <trkpt lat="48.26239" lon="-0.36533">
        <ele>231.9</ele>
        <time>2013-01-28T09:29:22Z</time>
      </trkpt>
      <trkpt lat="48.26219" lon="-0.36593">
        <ele>276</ele>
        <time>2013-01-28T09:29:31Z</time>
      </trkpt>
      <trkpt lat="48.26214" lon="-0.36606">
        <ele>273</ele>
        <time>2013-01-28T09:29:39Z</time>
      </trkpt>
      <trkpt lat="48.26201" lon="-0.36637">
        <ele>272</ele>
        <time>2013-01-28T09:29:56Z</time>
      </trkpt>
      <trkpt lat="48.26195" lon="-0.36651">
        <ele>271</ele>
        <time>2013-01-28T09:30:04Z</time>
      </trkpt>
      <trkpt lat="48.26188" lon="-0.36676">
        <ele>265</ele>
        <time>2013-01-28T09:30:17Z</time>
      </trkpt>
      <trkpt lat="48.26188" lon="-0.36676">
        <ele>265</ele>
        <time>2013-01-28T09:30:24Z</time>
      </trkpt>
      <trkpt lat="48.26188" lon="-0.36676">
        <ele>219.7</ele>
        <time>2013-01-28T09:30:25Z</time>
      </trkpt>
      <trkpt lat="48.26188" lon="-0.36676">
        <ele>219.7</ele>
        <time>2013-01-28T09:30:32Z</time>
      </trkpt>
      <trkpt lat="48.26195" lon="-0.36657">
        <ele>263</ele>
        <time>2013-01-28T09:30:37Z</time>
      </trkpt>
      <trkpt lat="48.26195" lon="-0.36657">
        <ele>221.4</ele>
        <time>2013-01-28T09:31:11Z</time>
      </trkpt>
      <trkpt lat="48.26182" lon="-0.36697">
        <ele>266</ele>
        <time>2013-01-28T09:31:22Z</time>
      </trkpt>
      <trkpt lat="48.26171" lon="-0.36722">
        <ele>262</ele>
        <time>2013-01-28T09:31:36Z</time>
      </trkpt>
      <trkpt lat="48.26164" lon="-0.3674">
        <ele>262</ele>
        <time>2013-01-28T09:31:46Z</time>
      </trkpt>
      <trkpt lat="48.26158" lon="-0.36759">
        <ele>263</ele>
        <time>2013-01-28T09:31:56Z</time>
      </trkpt>
      <trkpt lat="48.26153" lon="-0.36774">
        <ele>259</ele>
        <time>2013-01-28T09:32:04Z</time>
      </trkpt>
      <trkpt lat="48.26147" lon="-0.36791">
        <ele>259</ele>
        <time>2013-01-28T09:32:14Z</time>
      </trkpt>
      <trkpt lat="48.26137" lon="-0.36819">
        <ele>255</ele>
        <time>2013-01-28T09:32:29Z</time>
      </trkpt>
      <trkpt lat="48.26129" lon="-0.36841">
        <ele>254</ele>
        <time>2013-01-28T09:32:43Z</time>
      </trkpt>
      <trkpt lat="48.26114" lon="-0.36875">
        <ele>251</ele>
        <time>2013-01-28T09:33:02Z</time>
      </trkpt>
      <trkpt lat="48.26106" lon="-0.36894">
        <ele>252</ele>
        <time>2013-01-28T09:33:13Z</time>
      </trkpt>
      <trkpt lat="48.26095" lon="-0.36922">
        <ele>254</ele>
        <time>2013-01-28T09:33:27Z</time>
      </trkpt>
      <trkpt lat="48.26086" lon="-0.36942">
        <ele>253</ele>
        <time>2013-01-28T09:33:40Z</time>
      </trkpt>
      <trkpt lat="48.26075" lon="-0.36958">
        <ele>256</ele>
        <time>2013-01-28T09:33:49Z</time>
      </trkpt>
      <trkpt lat="48.2607" lon="-0.36973">
        <ele>246</ele>
        <time>2013-01-28T09:33:56Z</time>
      </trkpt>
      <trkpt lat="48.2607" lon="-0.36973">
        <ele>200</ele>
        <time>2013-01-28T09:34:04Z</time>
      </trkpt>
      <trkpt lat="48.2607" lon="-0.36973">
        <ele>200</ele>
        <time>2013-01-28T09:34:12Z</time>
      </trkpt>
      <trkpt lat="48.26042" lon="-0.36949">
        <ele>238</ele>
        <time>2013-01-28T09:34:26Z</time>
      </trkpt>
      <trkpt lat="48.26021" lon="-0.36969">
        <ele>241</ele>
        <time>2013-01-28T09:34:43Z</time>
      </trkpt>
      <trkpt lat="48.26016" lon="-0.36992">
        <ele>245</ele>
        <time>2013-01-28T09:34:55Z</time>
      </trkpt>
      <trkpt lat="48.25998" lon="-0.37015">
        <ele>241</ele>
        <time>2013-01-28T09:35:11Z</time>
      </trkpt>
      <trkpt lat="48.25984" lon="-0.37024">
        <ele>242</ele>
        <time>2013-01-28T09:35:23Z</time>
      </trkpt>
      <trkpt lat="48.25982" lon="-0.37025">
        <ele>241</ele>
        <time>2013-01-28T09:35:25Z</time>
      </trkpt>
      <trkpt lat="48.25982" lon="-0.37025">
        <ele>192</ele>
        <time>2013-01-28T09:35:32Z</time>
      </trkpt>
      <trkpt lat="48.25982" lon="-0.37025">
        <ele>192</ele>
        <time>2013-01-28T09:36:14Z</time>
      </trkpt>
      <trkpt lat="48.25957" lon="-0.37028">
        <ele>240</ele>
        <time>2013-01-28T09:36:22Z</time>
      </trkpt>
      <trkpt lat="48.25945" lon="-0.37009">
        <ele>232</ele>
        <time>2013-01-28T09:36:36Z</time>
      </trkpt>
      <trkpt lat="48.25934" lon="-0.36989">
        <ele>235</ele>
        <time>2013-01-28T09:36:48Z</time>
      </trkpt>
      <trkpt lat="48.25924" lon="-0.36972">
        <ele>233</ele>
        <time>2013-01-28T09:36:58Z</time>
      </trkpt>
      <trkpt lat="48.25912" lon="-0.3695">
        <ele>233</ele>
        <time>2013-01-28T09:37:12Z</time>
      </trkpt>
      <trkpt lat="48.25897" lon="-0.36922">
        <ele>234</ele>
        <time>2013-01-28T09:37:29Z</time>
      </trkpt>
      <trkpt lat="48.25885" lon="-0.36901">
        <ele>240</ele>
        <time>2013-01-28T09:37:43Z</time>
      </trkpt>
      <trkpt lat="48.25873" lon="-0.36882">
        <ele>236</ele>
        <time>2013-01-28T09:37:56Z</time>
      </trkpt>
      <trkpt lat="48.25859" lon="-0.36866">
        <ele>235</ele>
        <time>2013-01-28T09:38:12Z</time>
      </trkpt>
      <trkpt lat="48.2584" lon="-0.36862">
        <ele>231</ele>
        <time>2013-01-28T09:38:27Z</time>
      </trkpt>
      <trkpt lat="48.25826" lon="-0.36878">
        <ele>243</ele>
        <time>2013-01-28T09:38:41Z</time>
      </trkpt>
      <trkpt lat="48.25816" lon="-0.36891">
        <ele>242</ele>
        <time>2013-01-28T09:38:50Z</time>
      </trkpt>
      <trkpt lat="48.25803" lon="-0.3691">
        <ele>235</ele>
        <time>2013-01-28T09:39:02Z</time>
      </trkpt>
      <trkpt lat="48.25791" lon="-0.3693">
        <ele>237</ele>
        <time>2013-01-28T09:39:15Z</time>
      </trkpt>
      <trkpt lat="48.25776" lon="-0.36947">
        <ele>236</ele>
        <time>2013-01-28T09:39:29Z</time>
      </trkpt>
      <trkpt lat="48.25756" lon="-0.36947">
        <ele>230</ele>
        <time>2013-01-28T09:39:44Z</time>
      </trkpt>
      <trkpt lat="48.25739" lon="-0.36962">
        <ele>230</ele>
        <time>2013-01-28T09:39:59Z</time>
      </trkpt>
      <trkpt lat="48.2573" lon="-0.36975">
        <ele>229</ele>
        <time>2013-01-28T09:40:07Z</time>
      </trkpt>
      <trkpt lat="48.25719" lon="-0.36989">
        <ele>234</ele>
        <time>2013-01-28T09:40:17Z</time>
      </trkpt>
      <trkpt lat="48.25704" lon="-0.36996">
        <ele>223</ele>
        <time>2013-01-28T09:40:31Z</time>
      </trkpt>
      <trkpt lat="48.25685" lon="-0.36973">
        <ele>224</ele>
        <time>2013-01-28T09:40:49Z</time>
      </trkpt>
      <trkpt lat="48.25669" lon="-0.36977">
        <ele>229</ele>
        <time>2013-01-28T09:41:00Z</time>
      </trkpt>
      <trkpt lat="48.25655" lon="-0.36963">
        <ele>226</ele>
        <time>2013-01-28T09:41:12Z</time>
      </trkpt>
      <trkpt lat="48.2564" lon="-0.36949">
        <ele>223</ele>
        <time>2013-01-28T09:41:25Z</time>
      </trkpt>
      <trkpt lat="48.25626" lon="-0.36939">
        <ele>227</ele>
        <time>2013-01-28T09:41:37Z</time>
      </trkpt>
      <trkpt lat="48.2561" lon="-0.36924">
        <ele>218</ele>
        <time>2013-01-28T09:41:52Z</time>
      </trkpt>
      <trkpt lat="48.256" lon="-0.36915">
        <ele>220</ele>
        <time>2013-01-28T09:42:02Z</time>
      </trkpt>
      <trkpt lat="48.25584" lon="-0.36897">
        <ele>229</ele>
        <time>2013-01-28T09:42:16Z</time>
      </trkpt>
      <trkpt lat="48.25562" lon="-0.36883">
        <ele>224</ele>
        <time>2013-01-28T09:42:33Z</time>
      </trkpt>
      <trkpt lat="48.2555" lon="-0.36905">
        <ele>217</ele>
        <time>2013-01-28T09:42:47Z</time>
      </trkpt>
      <trkpt lat="48.25541" lon="-0.3692">
        <ele>224</ele>
        <time>2013-01-28T09:42:56Z</time>
      </trkpt>
      <trkpt lat="48.25531" lon="-0.36935">
        <ele>221</ele>
        <time>2013-01-28T09:43:06Z</time>
      </trkpt>
      <trkpt lat="48.25521" lon="-0.36949">
        <ele>217</ele>
        <time>2013-01-28T09:43:15Z</time>
      </trkpt>
      <trkpt lat="48.25511" lon="-0.36962">
        <ele>219</ele>
        <time>2013-01-28T09:43:25Z</time>
      </trkpt>
      <trkpt lat="48.25495" lon="-0.36975">
        <ele>225</ele>
        <time>2013-01-28T09:43:39Z</time>
      </trkpt>
      <trkpt lat="48.25477" lon="-0.36977">
        <ele>219</ele>
        <time>2013-01-28T09:43:51Z</time>
      </trkpt>
      <trkpt lat="48.25461" lon="-0.36989">
        <ele>221</ele>
        <time>2013-01-28T09:44:05Z</time>
      </trkpt>
      <trkpt lat="48.25443" lon="-0.37004">
        <ele>221</ele>
        <time>2013-01-28T09:44:20Z</time>
      </trkpt>
      <trkpt lat="48.25426" lon="-0.37018">
        <ele>218</ele>
        <time>2013-01-28T09:44:34Z</time>
      </trkpt>
      <trkpt lat="48.25423" lon="-0.3702">
        <ele>219</ele>
        <time>2013-01-28T09:44:36Z</time>
      </trkpt>
      <trkpt lat="48.25423" lon="-0.3702">
        <ele>173.4</ele>
        <time>2013-01-28T09:44:44Z</time>
      </trkpt>
      <trkpt lat="48.25423" lon="-0.3702">
        <ele>173.4</ele>
        <time>2013-01-28T09:44:57Z</time>
      </trkpt>
      <trkpt lat="48.25408" lon="-0.36981">
        <ele>220</ele>
        <time>2013-01-28T09:45:08Z</time>
      </trkpt>
      <trkpt lat="48.25389" lon="-0.36983">
        <ele>224</ele>
        <time>2013-01-28T09:45:26Z</time>
      </trkpt>
      <trkpt lat="48.25377" lon="-0.36957">
        <ele>218</ele>
        <time>2013-01-28T09:45:44Z</time>
      </trkpt>
      <trkpt lat="48.25367" lon="-0.36932">
        <ele>218</ele>
        <time>2013-01-28T09:45:57Z</time>
      </trkpt>
      <trkpt lat="48.25355" lon="-0.36928">
        <ele>223</ele>
        <time>2013-01-28T09:46:08Z</time>
      </trkpt>
      <trkpt lat="48.25339" lon="-0.36936">
        <ele>227</ele>
        <time>2013-01-28T09:46:25Z</time>
      </trkpt>
      <trkpt lat="48.25322" lon="-0.36958">
        <ele>216</ele>
        <time>2013-01-28T09:46:41Z</time>
      </trkpt>
      <trkpt lat="48.2531" lon="-0.36966">
        <ele>212</ele>
        <time>2013-01-28T09:46:51Z</time>
      </trkpt>
      <trkpt lat="48.25291" lon="-0.3698">
        <ele>224</ele>
        <time>2013-01-28T09:47:05Z</time>
      </trkpt>
      <trkpt lat="48.25276" lon="-0.36985">
        <ele>216</ele>
        <time>2013-01-28T09:47:17Z</time>
      </trkpt>
      <trkpt lat="48.2526" lon="-0.36995">
        <ele>220</ele>
        <time>2013-01-28T09:47:39Z</time>
      </trkpt>
      <trkpt lat="48.2526" lon="-0.36995">
        <ele>220</ele>
        <time>2013-01-28T09:47:46Z</time>
      </trkpt>
      <trkpt lat="48.2526" lon="-0.36995">
        <ele>176</ele>
        <time>2013-01-28T09:49:33Z</time>
      </trkpt>
      <trkpt lat="48.25245" lon="-0.36966">
        <ele>216</ele>
        <time>2013-01-28T09:49:42Z</time>
      </trkpt>
      <trkpt lat="48.25245" lon="-0.36946">
        <ele>216</ele>
        <time>2013-01-28T09:49:56Z</time>
      </trkpt>
      <trkpt lat="48.25236" lon="-0.36905">
        <ele>218</ele>
        <time>2013-01-28T09:50:14Z</time>
      </trkpt>
      <trkpt lat="48.25231" lon="-0.36868">
        <ele>217</ele>
        <time>2013-01-28T09:50:30Z</time>
      </trkpt>
      <trkpt lat="48.25231" lon="-0.36868">
        <ele>177</ele>
        <time>2013-01-28T09:50:38Z</time>
      </trkpt>
      <trkpt lat="48.25231" lon="-0.36868">
        <ele>177</ele>
        <time>2013-01-28T09:50:47Z</time>
      </trkpt>
      <trkpt lat="48.25228" lon="-0.36853">
        <ele>214</ele>
        <time>2013-01-28T09:50:55Z</time>
      </trkpt>
      <trkpt lat="48.25228" lon="-0.36853">
        <ele>177</ele>
        <time>2013-01-28T09:51:11Z</time>
      </trkpt>
      <trkpt lat="48.25204" lon="-0.36879">
        <ele>227</ele>
        <time>2013-01-28T09:51:27Z</time>
      </trkpt>
      <trkpt lat="48.25209" lon="-0.36909">
        <ele>222</ele>
        <time>2013-01-28T09:51:42Z</time>
      </trkpt>
      <trkpt lat="48.25217" lon="-0.36932">
        <ele>215</ele>
        <time>2013-01-28T09:51:54Z</time>
      </trkpt>
      <trkpt lat="48.25216" lon="-0.36951">
        <ele>226</ele>
        <time>2013-01-28T09:52:03Z</time>
      </trkpt>
      <trkpt lat="48.2521" lon="-0.36972">
        <ele>225</ele>
        <time>2013-01-28T09:52:18Z</time>
      </trkpt>
      <trkpt lat="48.2519" lon="-0.36976">
        <ele>227</ele>
        <time>2013-01-28T09:52:34Z</time>
      </trkpt>
      <trkpt lat="48.25177" lon="-0.36983">
        <ele>220</ele>
        <time>2013-01-28T09:52:44Z</time>
      </trkpt>
      <trkpt lat="48.25159" lon="-0.36998">
        <ele>222</ele>
        <time>2013-01-28T09:52:59Z</time>
      </trkpt>
      <trkpt lat="48.2514" lon="-0.37018">
        <ele>227</ele>
        <time>2013-01-28T09:53:14Z</time>
      </trkpt>
      <trkpt lat="48.25147" lon="-0.37046">
        <ele>222</ele>
        <time>2013-01-28T09:53:28Z</time>
      </trkpt>
      <trkpt lat="48.25151" lon="-0.3707">
        <ele>221</ele>
        <time>2013-01-28T09:53:41Z</time>
      </trkpt>
      <trkpt lat="48.25159" lon="-0.37107">
        <ele>228</ele>
        <time>2013-01-28T09:53:58Z</time>
      </trkpt>
      <trkpt lat="48.25166" lon="-0.37134">
        <ele>228</ele>
        <time>2013-01-28T09:54:12Z</time>
      </trkpt>
      <trkpt lat="48.25166" lon="-0.37134">
        <ele>228</ele>
        <time>2013-01-28T09:54:19Z</time>
      </trkpt>
      <trkpt lat="48.25166" lon="-0.37134">
        <ele>180.1</ele>
        <time>2013-01-28T09:54:55Z</time>
      </trkpt>
      <trkpt lat="48.25184" lon="-0.37207">
        <ele>219</ele>
        <time>2013-01-28T09:55:12Z</time>
      </trkpt>
      <trkpt lat="48.25189" lon="-0.37227">
        <ele>219</ele>
        <time>2013-01-28T09:55:24Z</time>
      </trkpt>
      <trkpt lat="48.25194" lon="-0.37248">
        <ele>221</ele>
        <time>2013-01-28T09:55:35Z</time>
      </trkpt>
      <trkpt lat="48.252" lon="-0.37275">
        <ele>223</ele>
        <time>2013-01-28T09:55:48Z</time>
      </trkpt>
      <trkpt lat="48.25206" lon="-0.37301">
        <ele>225</ele>
        <time>2013-01-28T09:56:01Z</time>
      </trkpt>
      <trkpt lat="48.25216" lon="-0.37328">
        <ele>221</ele>
        <time>2013-01-28T09:56:15Z</time>
      </trkpt>
      <trkpt lat="48.25228" lon="-0.37352">
        <ele>218</ele>
        <time>2013-01-28T09:56:30Z</time>
      </trkpt>
      <trkpt lat="48.25239" lon="-0.37372">
        <ele>212</ele>
        <time>2013-01-28T09:56:43Z</time>
      </trkpt>
      <trkpt lat="48.25246" lon="-0.37387">
        <ele>224</ele>
        <time>2013-01-28T09:56:52Z</time>
      </trkpt>
      <trkpt lat="48.25258" lon="-0.37404">
        <ele>215</ele>
        <time>2013-01-28T09:57:04Z</time>
      </trkpt>
      <trkpt lat="48.25262" lon="-0.37427">
        <ele>222</ele>
        <time>2013-01-28T09:57:15Z</time>
      </trkpt>
      <trkpt lat="48.25262" lon="-0.37427">
        <ele>174.4</ele>
        <time>2013-01-28T09:57:23Z</time>
      </trkpt>
      <trkpt lat="48.25262" lon="-0.37427">
        <ele>174.4</ele>
        <time>2013-01-28T09:58:56Z</time>
      </trkpt>
      <trkpt lat="48.25243" lon="-0.37386">
        <ele>224</ele>
        <time>2013-01-28T09:59:07Z</time>
      </trkpt>
      <trkpt lat="48.25231" lon="-0.37357">
        <ele>219</ele>
        <time>2013-01-28T09:59:23Z</time>
      </trkpt>
      <trkpt lat="48.25222" lon="-0.37338">
        <ele>223</ele>
        <time>2013-01-28T09:59:35Z</time>
      </trkpt>
      <trkpt lat="48.25213" lon="-0.3733">
        <ele>216</ele>
        <time>2013-01-28T09:59:44Z</time>
      </trkpt>
      <trkpt lat="48.25213" lon="-0.3733">
        <ele>176.3</ele>
        <time>2013-01-28T09:59:52Z</time>
      </trkpt>
      <trkpt lat="48.25213" lon="-0.3733">
        <ele>176.3</ele>
        <time>2013-01-28T10:00:16Z</time>
      </trkpt>
      <trkpt lat="48.25202" lon="-0.37286">
        <ele>222</ele>
        <time>2013-01-28T10:00:27Z</time>
      </trkpt>
      <trkpt lat="48.25194" lon="-0.37263">
        <ele>224</ele>
        <time>2013-01-28T10:00:41Z</time>
      </trkpt>
      <trkpt lat="48.25191" lon="-0.37246">
        <ele>221</ele>
        <time>2013-01-28T10:00:49Z</time>
      </trkpt>
      <trkpt lat="48.25186" lon="-0.37226">
        <ele>225</ele>
        <time>2013-01-28T10:00:59Z</time>
      </trkpt>
      <trkpt lat="48.25178" lon="-0.37197">
        <ele>226</ele>
        <time>2013-01-28T10:01:15Z</time>
      </trkpt>
      <trkpt lat="48.25177" lon="-0.37177">
        <ele>228</ele>
        <time>2013-01-28T10:01:25Z</time>
      </trkpt>
      <trkpt lat="48.25172" lon="-0.37152">
        <ele>224</ele>
        <time>2013-01-28T10:01:38Z</time>
      </trkpt>
      <trkpt lat="48.25166" lon="-0.37132">
        <ele>223</ele>
        <time>2013-01-28T10:01:50Z</time>
      </trkpt>
      <trkpt lat="48.25159" lon="-0.37103">
        <ele>224</ele>
        <time>2013-01-28T10:02:05Z</time>
      </trkpt>
      <trkpt lat="48.25153" lon="-0.3708">
        <ele>226</ele>
        <time>2013-01-28T10:02:18Z</time>
      </trkpt>
      <trkpt lat="48.25146" lon="-0.37052">
        <ele>225</ele>
        <time>2013-01-28T10:02:32Z</time>
      </trkpt>
      <trkpt lat="48.25142" lon="-0.37029">
        <ele>230</ele>
        <time>2013-01-28T10:02:46Z</time>
      </trkpt>
      <trkpt lat="48.25134" lon="-0.36998">
        <ele>229</ele>
        <time>2013-01-28T10:03:03Z</time>
      </trkpt>
      <trkpt lat="48.25128" lon="-0.36971">
        <ele>229</ele>
        <time>2013-01-28T10:03:18Z</time>
      </trkpt>
      <trkpt lat="48.25121" lon="-0.36942">
        <ele>227</ele>
        <time>2013-01-28T10:03:34Z</time>
      </trkpt>
      <trkpt lat="48.25117" lon="-0.36921">
        <ele>231</ele>
        <time>2013-01-28T10:03:43Z</time>
      </trkpt>
      <trkpt lat="48.2511" lon="-0.36899">
        <ele>228</ele>
        <time>2013-01-28T10:03:55Z</time>
      </trkpt>
      <trkpt lat="48.25102" lon="-0.36868">
        <ele>231</ele>
        <time>2013-01-28T10:04:12Z</time>
      </trkpt>
      <trkpt lat="48.25097" lon="-0.3685">
        <ele>231</ele>
        <time>2013-01-28T10:04:23Z</time>
      </trkpt>
      <trkpt lat="48.25093" lon="-0.36827">
        <ele>229</ele>
        <time>2013-01-28T10:04:34Z</time>
      </trkpt>
      <trkpt lat="48.25088" lon="-0.36808">
        <ele>227</ele>
        <time>2013-01-28T10:04:44Z</time>
      </trkpt>
      <trkpt lat="48.25085" lon="-0.36793">
        <ele>227</ele>
        <time>2013-01-28T10:04:53Z</time>
      </trkpt>
      <trkpt lat="48.25076" lon="-0.36761">
        <ele>230</ele>
        <time>2013-01-28T10:05:10Z</time>
      </trkpt>
      <trkpt lat="48.2507" lon="-0.36731">
        <ele>226</ele>
        <time>2013-01-28T10:05:26Z</time>
      </trkpt>
      <trkpt lat="48.25062" lon="-0.367">
        <ele>226</ele>
        <time>2013-01-28T10:05:42Z</time>
      </trkpt>
      <trkpt lat="48.2506" lon="-0.36668">
        <ele>223</ele>
        <time>2013-01-28T10:05:57Z</time>
      </trkpt>
      <trkpt lat="48.25066" lon="-0.36653">
        <ele>225</ele>
        <time>2013-01-28T10:06:11Z</time>
      </trkpt>
      <trkpt lat="48.25055" lon="-0.36637">
        <ele>230</ele>
        <time>2013-01-28T10:06:25Z</time>
      </trkpt>
      <trkpt lat="48.25057" lon="-0.36619">
        <ele>227</ele>
        <time>2013-01-28T10:06:36Z</time>
      </trkpt>
      <trkpt lat="48.25065" lon="-0.36599">
        <ele>213</ele>
        <time>2013-01-28T10:06:49Z</time>
      </trkpt>
      <trkpt lat="48.25075" lon="-0.36559">
        <ele>224</ele>
        <time>2013-01-28T10:07:08Z</time>
      </trkpt>
      <trkpt lat="48.25081" lon="-0.3654">
        <ele>225</ele>
        <time>2013-01-28T10:07:18Z</time>
      </trkpt>
      <trkpt lat="48.25086" lon="-0.36521">
        <ele>227</ele>
        <time>2013-01-28T10:07:30Z</time>
      </trkpt>
      <trkpt lat="48.25088" lon="-0.36486">
        <ele>236</ele>
        <time>2013-01-28T10:07:52Z</time>
      </trkpt>
      <trkpt lat="48.25094" lon="-0.36463">
        <ele>231</ele>
        <time>2013-01-28T10:08:00Z</time>
      </trkpt>
      <trkpt lat="48.25095" lon="-0.36458">
        <ele>231</ele>
        <time>2013-01-28T10:08:02Z</time>
      </trkpt>
      <trkpt lat="48.25095" lon="-0.36458">
        <ele>180.7</ele>
        <time>2013-01-28T10:08:07Z</time>
      </trkpt>
      <trkpt lat="48.25095" lon="-0.36458">
        <ele>180.7</ele>
        <time>2013-01-28T10:08:32Z</time>
      </trkpt>
      <trkpt lat="48.25096" lon="-0.36408">
        <ele>241</ele>
        <time>2013-01-28T10:08:36Z</time>
      </trkpt>
      <trkpt lat="48.25096" lon="-0.36408">
        <ele>181.8</ele>
        <time>2013-01-28T10:08:42Z</time>
      </trkpt>
      <trkpt lat="48.25096" lon="-0.36408">
        <ele>181.8</ele>
        <time>2013-01-28T10:09:00Z</time>
      </trkpt>
      <trkpt lat="48.25096" lon="-0.36408">
        <ele>181.8</ele>
        <time>2013-01-28T10:17:57Z</time>
      </trkpt>
      <trkpt lat="48.25096" lon="-0.36408">
        <ele>181.8</ele>
        <time>2013-01-28T10:28:31Z</time>
      </trkpt>
      <trkpt lat="48.25073" lon="-0.36419">
        <ele>290</ele>
        <time>2013-01-28T10:28:47Z</time>
      </trkpt>
      <trkpt lat="48.2508" lon="-0.36393">
        <ele>277</ele>
        <time>2013-01-28T10:28:51Z</time>
      </trkpt>
      <trkpt lat="48.25092" lon="-0.36349">
        <ele>255</ele>
        <time>2013-01-28T10:28:56Z</time>
      </trkpt>
      <trkpt lat="48.25097" lon="-0.36318">
        <ele>244</ele>
        <time>2013-01-28T10:29:04Z</time>
      </trkpt>
      <trkpt lat="48.25093" lon="-0.36298">
        <ele>241</ele>
        <time>2013-01-28T10:29:15Z</time>
      </trkpt>
      <trkpt lat="48.25093" lon="-0.36298">
        <ele>241</ele>
        <time>2013-01-28T10:29:23Z</time>
      </trkpt>
      <trkpt lat="48.25093" lon="-0.36298">
        <ele>184</ele>
        <time>2013-01-28T10:29:27Z</time>
      </trkpt>
      <trkpt lat="48.25084" lon="-0.36264">
        <ele>237</ele>
        <time>2013-01-28T10:29:34Z</time>
      </trkpt>
      <trkpt lat="48.25089" lon="-0.36228">
        <ele>235</ele>
        <time>2013-01-28T10:30:04Z</time>
      </trkpt>
      <trkpt lat="48.251" lon="-0.36209">
        <ele>244</ele>
        <time>2013-01-28T10:30:22Z</time>
      </trkpt>
      <trkpt lat="48.25113" lon="-0.36188">
        <ele>225</ele>
        <time>2013-01-28T10:30:30Z</time>
      </trkpt>
      <trkpt lat="48.25122" lon="-0.36167">
        <ele>226</ele>
        <time>2013-01-28T10:30:42Z</time>
      </trkpt>
      <trkpt lat="48.25132" lon="-0.36159">
        <ele>231</ele>
        <time>2013-01-28T10:30:51Z</time>
      </trkpt>
      <trkpt lat="48.25135" lon="-0.36143">
        <ele>240</ele>
        <time>2013-01-28T10:31:03Z</time>
      </trkpt>
      <trkpt lat="48.25144" lon="-0.3613">
        <ele>242</ele>
        <time>2013-01-28T10:31:16Z</time>
      </trkpt>
      <trkpt lat="48.25144" lon="-0.3613">
        <ele>191.4</ele>
        <time>2013-01-28T10:31:23Z</time>
      </trkpt>
      <trkpt lat="48.25144" lon="-0.3613">
        <ele>191.4</ele>
        <time>2013-01-28T10:31:48Z</time>
      </trkpt>
      <trkpt lat="48.25156" lon="-0.36092">
        <ele>243</ele>
        <time>2013-01-28T10:32:01Z</time>
      </trkpt>
      <trkpt lat="48.25177" lon="-0.36074">
        <ele>237</ele>
        <time>2013-01-28T10:32:16Z</time>
      </trkpt>
      <trkpt lat="48.25189" lon="-0.36055">
        <ele>238</ele>
        <time>2013-01-28T10:32:29Z</time>
      </trkpt>
      <trkpt lat="48.25198" lon="-0.36042">
        <ele>238</ele>
        <time>2013-01-28T10:32:41Z</time>
      </trkpt>
      <trkpt lat="48.25212" lon="-0.3602">
        <ele>235</ele>
        <time>2013-01-28T10:32:57Z</time>
      </trkpt>
      <trkpt lat="48.25221" lon="-0.36004">
        <ele>241</ele>
        <time>2013-01-28T10:33:08Z</time>
      </trkpt>
      <trkpt lat="48.25227" lon="-0.35976">
        <ele>243</ele>
        <time>2013-01-28T10:33:24Z</time>
      </trkpt>
      <trkpt lat="48.25228" lon="-0.35971">
        <ele>246</ele>
        <time>2013-01-28T10:33:27Z</time>
      </trkpt>
      <trkpt lat="48.25228" lon="-0.35971">
        <ele>200.1</ele>
        <time>2013-01-28T10:33:37Z</time>
      </trkpt>
      <trkpt lat="48.25228" lon="-0.35971">
        <ele>200.1</ele>
        <time>2013-01-28T10:34:13Z</time>
      </trkpt>
      <trkpt lat="48.25228" lon="-0.35971">
        <ele>200.1</ele>
        <time>2013-01-28T10:35:21Z</time>
      </trkpt>
      <trkpt lat="48.25228" lon="-0.35971">
        <ele>200.1</ele>
        <time>2013-01-28T10:35:22Z</time>
      </trkpt>
    </trkseg>
  </trk>
</gpx>